Time;durP1;ratioP1;P1;durP2;ratioP2;P2;SDS_P1;SDS_P2;PMS_P1;PMS_P2;Temp;Humidity;BMP_temperature;BMP_pressure;BME280_temperature;BME280_humidity;BME280_pressure;Samples;Min_cycle;Max_cycle;Signal;HPM_P1;HPM_P2
2022/01/22 00:07:02;;;;;;;4.50;3.10;;;;;;;-3.85;82.44;99412.04;431767;1273;140193;-64
2022/01/22 00:17:25;;;;;;;6.60;4.40;;;;;;;-3.68;82.49;99419.59;430959;1273;141071;-61
2022/01/22 00:27:31;;;;;;;7.60;4.70;;;;;;;-3.53;82.38;99419.80;431121;1273;141383;-62
2022/01/22 00:37:40;;;;;;;6.30;4.90;;;;;;;-3.41;82.34;99425.00;431177;1273;141966;-61
2022/01/22 00:47:46;;;;;;;7.90;4.90;;;;;;;-3.32;82.26;99426.29;431113;1273;142329;-64
2022/01/22 00:57:50;;;;;;;;;;;;;;;-3.38;81.95;99428.91;430330;1273;141755;-62
2022/01/22 01:07:56;;;;;;;8.20;6.10;;;;;;;-3.67;82.11;99427.46;435701;1271;127961;-63
2022/01/22 01:32:10;;;;;;;8.80;5.80;;;;;;;-3.85;82.24;99427.77;431113;1271;200426;-63
2022/01/22 01:39:02;;;;;;;7.50;5.10;;;;;;;-4.51;82.66;99421.85;431204;1271;141476;-62
2022/01/22 01:49:07;;;;;;;6.90;5.10;;;;;;;-4.83;82.89;99426.80;431294;1272;141842;-63
2022/01/22 01:59:16;;;;;;;9.70;5.00;;;;;;;-5.10;83.25;99430.80;431775;1271;141780;-62
2022/01/22 02:09:22;;;;;;;5.40;4.30;;;;;;;-5.36;83.41;99429.33;434077;1273;141838;-61
2022/01/22 02:29:52;;;;;;;9.30;5.50;;;;;;;-5.83;83.63;99423.73;431089;1272;141765;-63
2022/01/22 02:40:03;;;;;;;;;;;;;;;-5.98;84.00;99425.10;429982;1273;141245;-62
2022/01/22 02:50:10;;;;;;;10.30;6.40;;;;;;;-6.16;84.04;99428.33;429775;1273;127646;-62
2022/01/22 03:00:22;;;;;;;13.50;7.20;;;;;;;-6.34;84.22;99433.08;430902;1273;140891;-63
2022/01/22 03:10:29;;;;;;;10.70;7.00;;;;;;;-6.43;84.45;99433.73;430853;1273;140961;-61
2022/01/22 03:20:59;;;;;;;12.20;5.60;;;;;;;-6.31;84.88;99438.02;430336;1274;141111;-64
2022/01/22 03:31:05;;;;;;;7.40;5.10;;;;;;;-6.09;85.13;99447.95;432586;1271;142029;-63
2022/01/22 03:41:11;;;;;;;5.60;4.40;;;;;;;-5.87;85.35;99453.73;430616;1271;141961;-63
2022/01/22 03:51:18;;;;;;;6.40;3.60;;;;;;;-5.60;85.33;99467.05;430663;1273;142173;-63
2022/01/22 04:11:57;;;;;;;6.30;4.40;;;;;;;-5.80;84.75;99487.68;430469;1273;140682;-64
2022/01/22 04:32:27;;;;;;;9.90;5.40;;;;;;;-6.03;84.91;99507.26;431187;1273;141304;-62
2022/01/22 04:42:36;;;;;;;14.40;5.60;;;;;;;-5.97;84.90;99514.59;430627;1273;142071;-63
2022/01/22 04:54:57;;;;;;;3.30;2.20;;;;;;;-6.12;84.64;99520.55;430250;1273;142002;-63
2022/01/22 05:03:08;;;;;;;4.50;2.40;;;;;;;-6.24;84.88;99524.09;431775;1271;140555;-63
2022/01/22 05:13:14;;;;;;;4.20;2.50;;;;;;;-6.21;85.06;99529.72;432501;1273;140083;-63
2022/01/22 05:23:23;;;;;;;4.60;3.40;;;;;;;-6.24;85.03;99534.48;431044;1273;140659;-64
2022/01/22 05:36:54;;;;;;;5.60;2.70;;;;;;;-6.27;85.23;99551.35;431754;1273;140645;-62
2022/01/22 05:43:58;;;;;;;2.90;2.40;;;;;;;-6.17;85.34;99562.63;430052;1273;140902;-62
2022/01/22 05:54:33;;;;;;;3.80;2.20;;;;;;;-6.25;85.05;99576.91;431310;1273;142761;-62
2022/01/22 06:04:40;;;;;;;4.40;2.50;;;;;;;-6.35;85.19;99595.60;430671;1273;141529;-64
2022/01/22 06:14:46;;;;;;;4.70;2.60;;;;;;;-6.24;85.34;99608.10;430365;1273;143238;-62
2022/01/22 06:24:50;;;;;;;;;;;;;;;-6.11;85.29;99609.67;431123;1273;142669;-63
2022/01/22 06:34:56;;;;;;;4.10;2.50;;;;;;;-5.94;85.33;99620.80;431701;1272;128358;-64
2022/01/22 06:45:01;;;;;;;;;;;;;;;-5.54;85.21;99640.70;431132;1273;141003;-63
2022/01/22 06:55:11;;;;;;;5.00;2.60;;;;;;;-5.16;84.79;99647.08;432025;1271;127939;-62
2022/01/22 07:05:17;;;;;;;5.20;2.10;;;;;;;-4.87;84.19;99661.79;432001;1273;141513;-63
2022/01/22 07:15:23;;;;;;;3.70;2.30;;;;;;;-4.65;83.52;99671.01;431594;1271;142078;-64
2022/01/22 07:25:28;;;;;;;;;;;;;;;-4.37;83.20;99680.36;431728;1273;141160;-63
2022/01/22 07:35:34;;;;;;;7.40;3.40;;;;;;;-2.70;82.38;99679.98;431146;1273;128090;-64
2022/01/22 07:45:41;;;;;;;4.90;2.30;;;;;;;-1.00;79.85;99684.48;432988;1271;143524;-64
2022/01/22 07:55:46;;;;;;;6.20;2.50;;;;;;;-1.93;78.21;99710.37;430973;1272;142332;-64
2022/01/22 08:05:52;;;;;;;1.70;1.60;;;;;;;-2.60;78.57;99729.71;431971;1271;141415;-65
2022/01/22 08:15:58;;;;;;;7.70;2.90;;;;;;;-2.73;78.87;99750.20;431254;1273;141340;-62
2022/01/22 08:26:08;;;;;;;5.10;2.80;;;;;;;-2.66;78.59;99764.89;431951;1273;140952;-64
2022/01/22 08:36:14;;;;;;;8.10;3.70;;;;;;;-2.47;77.68;99763.73;431903;1272;140996;-64
2022/01/22 08:46:20;;;;;;;5.30;1.90;;;;;;;-2.58;77.00;99758.32;431522;1271;142051;-63
2022/01/22 08:56:27;;;;;;;7.30;3.20;;;;;;;-2.54;76.59;99762.73;433585;1273;140734;-63
2022/01/22 09:06:34;;;;;;;8.00;2.60;;;;;;;-2.36;76.90;99786.44;433950;1272;140897;-63
2022/01/22 09:16:41;;;;;;;8.20;3.00;;;;;;;-2.08;76.30;99811.26;431562;1271;141307;-64
2022/01/22 09:26:46;;;;;;;3.80;2.10;;;;;;;-1.89;75.52;99833.23;431742;1273;142022;-62
2022/01/22 09:36:53;;;;;;;7.70;3.70;;;;;;;-1.69;74.88;99847.29;432621;1272;140885;-65
2022/01/22 09:46:59;;;;;;;3.80;2.40;;;;;;;-1.61;74.53;99858.88;430952;1272;141554;-63
2022/01/22 09:57:06;;;;;;;5.50;3.10;;;;;;;-1.40;73.75;99865.02;432307;1273;140217;-64
2022/01/22 10:07:21;;;;;;;8.20;2.60;;;;;;;-1.58;73.87;99883.76;431359;1273;141848;-63
2022/01/22 10:28:12;;;;;;;7.40;3.50;;;;;;;-1.75;74.07;99896.42;418260;1312;600535;-66
2022/01/22 10:38:21;;;;;;;5.50;2.40;;;;;;;-1.69;73.92;99905.14;427316;1284;294138;-60
2022/01/22 10:48:27;;;;;;;8.80;4.00;;;;;;;-1.69;73.81;99919.22;428611;1283;140494;-64
2022/01/22 10:58:34;;;;;;;7.00;3.30;;;;;;;-1.55;73.64;99928.71;428401;1285;145167;-65
2022/01/22 11:08:39;;;;;;;;;;;;;;;-1.40;73.68;99943.01;428747;1285;140721;-61
2022/01/22 11:18:48;;;;;;;5.90;2.90;;;;;;;-1.30;73.28;99955.44;428140;1285;127191;-61
2022/01/22 11:28:56;;;;;;;5.30;3.30;;;;;;;-1.33;73.05;99957.71;427054;1285;140956;-60
2022/01/22 11:39:03;;;;;;;7.50;3.70;;;;;;;-1.13;73.13;99972.13;428762;1285;141809;-62
2022/01/22 11:49:19;;;;;;;5.90;3.50;;;;;;;-0.90;72.89;99987.52;429876;1281;141532;-61
2022/01/22 11:59:30;;;;;;;8.20;4.30;;;;;;;-0.96;72.19;100014.41;429940;1276;141267;-64
2022/01/22 12:09:43;;;;;;;5.10;2.70;;;;;;;-1.08;72.48;100021.40;430612;1276;141422;-59
2022/01/22 12:19:52;;;;;;;5.70;2.40;;;;;;;-1.01;72.45;100022.18;429485;1276;141704;-60
2022/01/22 12:30:03;;;;;;;7.40;3.40;;;;;;;-0.94;72.53;100035.35;430573;1276;140992;-60
2022/01/22 12:40:13;;;;;;;7.00;3.70;;;;;;;-0.79;72.05;100047.07;431639;1276;141342;-60
2022/01/22 12:50:26;;;;;;;8.40;4.10;;;;;;;-0.70;71.55;100044.73;429993;1276;140573;-65
2022/01/22 13:00:32;;;;;;;6.60;3.70;;;;;;;-0.62;71.71;100056.70;436047;1276;141660;-63
2022/01/22 13:10:45;;;;;;;7.80;4.20;;;;;;;-0.77;71.49;100065.27;432341;1276;141051;-63
2022/01/22 13:20:51;;;;;;;5.70;3.20;;;;;;;-0.91;71.83;100091.52;432268;1276;140622;-63
2022/01/22 13:30:58;;;;;;;9.80;4.70;;;;;;;-1.07;71.94;100104.55;434189;1275;141750;-63
2022/01/22 13:51:34;;;;;;;6.80;3.80;;;;;;;-1.39;72.13;100139.98;431166;1276;141242;-65
2022/01/22 14:01:49;;;;;;;7.70;3.80;;;;;;;-1.48;72.56;100154.64;429408;1276;161219;-65
2022/01/22 14:12:12;;;;;;;9.20;4.60;;;;;;;-1.53;72.77;100159.66;431240;1275;141061;-65
2022/01/22 14:22:18;;;;;;;5.30;3.50;;;;;;;-1.59;72.89;100178.23;430484;1276;141066;-63
2022/01/22 14:32:23;;;;;;;5.60;3.60;;;;;;;-1.64;72.95;100196.96;431506;1276;142993;-64
2022/01/22 14:53:03;;;;;;;8.30;5.40;;;;;;;-1.65;73.59;100217.06;432102;1276;140581;-67
2022/01/22 15:03:09;;;;;;;8.10;4.50;;;;;;;-1.73;73.65;100231.15;433025;1275;140648;-68
2022/01/22 15:13:15;;;;;;;4.70;3.70;;;;;;;-1.78;73.89;100239.59;430256;1276;141285;-68
2022/01/22 15:23:21;;;;;;;7.80;4.20;;;;;;;-1.85;73.97;100248.36;431074;1276;141092;-66
2022/01/22 15:33:46;;;;;;;6.00;4.00;;;;;;;-1.91;74.17;100258.33;430647;1276;141168;-68
2022/01/22 15:43:52;;;;;;;12.60;6.50;;;;;;;-1.98;74.30;100271.89;431719;1276;141067;-69
2022/01/22 15:53:58;;;;;;;10.30;5.40;;;;;;;-2.00;74.47;100285.80;432063;1276;140974;-67
2022/01/22 16:04:06;;;;;;;8.50;5.30;;;;;;;-2.01;74.77;100303.13;432573;1275;143448;-68
2022/01/22 16:14:12;;;;;;;10.60;5.10;;;;;;;-2.03;74.94;100313.23;437869;1276;141626;-60
2022/01/22 16:24:19;;;;;;;10.00;4.60;;;;;;;-2.05;75.02;100321.83;435512;1276;141069;-60
2022/01/22 16:34:24;;;;;;;9.60;4.50;;;;;;;-2.14;75.21;100339.85;437886;1276;143029;-59
2022/01/22 16:44:37;;;;;;;10.90;5.90;;;;;;;-2.23;75.30;100347.05;432634;1276;140813;-59
2022/01/22 16:54:47;;;;;;;8.10;5.00;;;;;;;-2.29;75.45;100356.47;431185;1276;141365;-69
2022/01/22 17:04:53;;;;;;;10.20;4.80;;;;;;;-2.37;75.46;100360.57;434711;1276;143859;-69
2022/01/22 17:14:59;;;;;;;9.50;4.90;;;;;;;-2.43;75.57;100354.73;437436;1276;141269;-70
2022/01/22 17:25:05;;;;;;;9.10;5.70;;;;;;;-2.49;75.53;100363.30;435849;1276;142369;-66
2022/01/22 17:35:10;;;;;;;;;;;;;;;-2.52;75.57;100370.16;441041;1274;141765;-68
2022/01/22 17:45:16;;;;;;;12.50;6.30;;;;;;;-2.53;75.71;100367.91;437256;1273;128020;-68
2022/01/22 17:55:23;;;;;;;12.50;6.20;;;;;;;-2.52;75.63;100371.19;431452;1274;143032;-67
2022/01/22 18:05:30;;;;;;;9.80;6.40;;;;;;;-2.53;75.64;100369.80;431274;1274;142089;-67
2022/01/22 18:15:37;;;;;;;7.70;5.20;;;;;;;-2.53;75.75;100373.06;433732;1274;146257;-67
2022/01/22 18:25:43;;;;;;;11.70;5.80;;;;;;;-2.51;75.92;100370.67;437732;1273;180995;-66
2022/01/22 18:35:49;;;;;;;12.00;6.20;;;;;;;-2.50;75.78;100376.14;434273;1275;140848;-67
2022/01/22 18:45:55;;;;;;;10.70;6.10;;;;;;;-2.51;75.99;100384.73;437396;1274;141308;-67
2022/01/22 18:56:02;;;;;;;9.10;6.10;;;;;;;-2.50;75.90;100399.99;434914;1274;142362;-68
2022/01/22 19:06:08;;;;;;;9.00;5.00;;;;;;;-2.47;75.96;100421.77;435555;1274;141746;-67
2022/01/22 19:16:14;;;;;;;13.90;7.80;;;;;;;-2.46;75.89;100425.38;432006;1274;140920;-65
2022/01/22 19:26:38;;;;;;;9.40;5.70;;;;;;;-2.46;75.95;100426.75;436407;1273;141711;-67
2022/01/22 19:36:44;;;;;;;9.20;5.00;;;;;;;-2.49;76.03;100421.59;433761;1274;140986;-66
2022/01/22 19:46:51;;;;;;;11.00;6.40;;;;;;;-2.53;76.08;100422.44;435457;1274;142843;-68
2022/01/22 19:56:57;;;;;;;7.90;5.00;;;;;;;-2.56;76.24;100424.15;441366;1273;145065;-68
2022/01/22 20:07:03;;;;;;;9.50;5.80;;;;;;;-2.58;76.18;100416.26;434135;1274;140986;-64
2022/01/22 20:17:10;;;;;;;12.10;5.70;;;;;;;-2.59;76.20;100421.56;442205;1274;142373;-68
2022/01/22 20:27:15;;;;;;;11.70;6.50;;;;;;;-2.60;76.18;100422.42;435082;1274;145599;-67
2022/01/22 20:37:21;;;;;;;11.50;5.20;;;;;;;-2.61;76.18;100433.90;433959;1274;145662;-68
2022/01/22 20:47:28;;;;;;;8.10;4.30;;;;;;;-2.70;76.03;100439.35;433326;1274;141114;-68
2022/01/22 20:57:34;;;;;;;14.20;6.70;;;;;;;-2.76;76.29;100447.20;434508;1274;141176;-67
2022/01/22 21:07:44;;;;;;;11.20;6.10;;;;;;;-2.79;76.28;100439.30;434185;1274;142791;-67
2022/01/22 21:17:50;;;;;;;9.10;4.90;;;;;;;-2.86;76.05;100441.69;433626;1274;144424;-66
2022/01/22 21:27:58;;;;;;;12.70;6.00;;;;;;;-2.95;76.02;100459.27;434738;1274;140419;-66
2022/01/22 21:38:26;;;;;;;13.80;6.20;;;;;;;-3.04;76.16;100470.88;433590;1275;143183;-66
2022/01/22 21:48:52;;;;;;;12.00;5.90;;;;;;;-3.11;76.34;100479.39;436398;1274;141796;-66
2022/01/22 21:58:56;;;;;;;;;;;;;;;-3.14;76.60;100482.64;434833;1274;142302;-66
2022/01/22 22:09:02;;;;;;;12.20;6.10;;;;;;;-3.20;76.71;100476.95;437523;1274;127603;-66
2022/01/22 22:19:09;;;;;;;12.00;5.90;;;;;;;-3.27;76.72;100476.56;431311;1274;143645;-67
2022/01/22 22:29:15;;;;;;;12.60;6.20;;;;;;;-3.30;76.94;100482.36;431196;1274;141413;-67
2022/01/22 22:39:21;;;;;;;13.50;7.20;;;;;;;-3.33;77.00;100487.82;435925;1273;254158;-66
2022/01/22 22:49:27;;;;;;;16.40;6.50;;;;;;;-3.37;77.09;100483.16;430313;1274;141031;-65
2022/01/22 22:59:33;;;;;;;9.40;5.70;;;;;;;-3.39;77.19;100474.91;430900;1274;141835;-64
2022/01/22 23:09:39;;;;;;;12.90;5.60;;;;;;;-3.46;77.26;100479.50;435463;1274;141231;-64
2022/01/22 23:30:09;;;;;;;13.40;6.80;;;;;;;-3.53;77.51;100491.10;437114;1273;142045;-62
